アティラウ の空港の天気 - METARとTAF

Atyrau Airport ( UATG / GUW ) - カザフスタン Atyrau
飛行場実況気象(Metar)
観測時間11/27 13:00 ORAT (11/27 08:00 UTC)
風向・風速東 10m/s
視程10km以上
天気現象
なし
気温1℃
湿度60%
気圧1025hPa
METARUATG 270800Z 10010MPS CAVOK 01/M06 Q1025 NOSIG RMK QFE771/1028
過去の天気等 Google飛行場航空写真 Wunderground天気予報

過去48時間のMETAR

飛行場予報(TAF)
発表時間: 11/27 10:01 ORAT (11/27 05:01 UTC)
予報対象時間: 27日11時 ORAT ~ 28日11時 ORAT
風向・風速東 11m/s 瞬間風速 16m/s
視程10km以上
全天の8割程度の雲 雲底高度 910m
27日13時 ORAT ~ 27日17時 ORAT に徐々に
視程4000m
天気現象高い風塵
全天の4割程度の雲 雲底高度 340m
27日18時 ORAT ~ 27日19時 ORAT に徐々に
風向・風速東 10m/s
全天の8割程度の雲 雲底高度 340m
28日3時 ORAT ~ 28日5時 ORAT に徐々に
風向・風速北東 8m/s
TAF UATG 270501Z 2706/2806 10011G16MPS 9999 BKN030 TX03/2710Z TNM04/2803Z
BECMG 2708/2712 4000 BLDU SCT011
BECMG 2713/2714 08010MPS BKN011
BECMG 2722/2724 05008MPS